createdAt,value
2023-01-11T03:29:29.834Z,96130.91
2023-01-11T03:32:14.101Z,96130.44
2023-01-11T03:34:51.302Z,96119.31
2023-01-11T03:37:27.096Z,96124.28
2023-01-11T03:40:04.102Z,96117.22
2023-01-11T03:42:56.356Z,96119.59
2023-01-11T03:45:29.097Z,96115.53
2023-01-11T03:48:00.302Z,96118.59
2023-01-11T03:50:31.890Z,96129.56
2023-01-11T03:53:05.872Z,96119.88
2023-01-11T03:55:41.737Z,96118.59
2023-01-11T03:58:10.700Z,96120.03
2023-01-11T04:00:41.609Z,96115.63
2023-01-11T04:03:12.610Z,96101.66
2023-01-11T04:05:45.960Z,96105.38
2023-01-11T04:08:13.772Z,96099.28
2023-01-11T04:10:41.670Z,96107.16
2023-01-11T04:13:09.513Z,96104.16
2023-01-11T04:15:37.433Z,96105.28
2023-01-11T04:18:07.425Z,96101.75
2023-01-11T04:20:36.956Z,96090.13
2023-01-11T04:23:05.561Z,96098.41
2023-01-11T04:25:33.754Z,96081.09
2023-01-11T04:28:01.857Z,96090.56
2023-01-11T04:30:29.728Z,96085.22
2023-01-11T04:32:59.144Z,96086.03
2023-01-11T04:35:28.726Z,96089.31
2023-01-11T04:37:56.997Z,96099.91
2023-01-11T04:40:25.145Z,96084.16
2023-01-11T04:42:52.461Z,96091.94
2023-01-11T04:45:20.758Z,96100.69
2023-01-11T04:47:55.541Z,96108.22
2023-01-11T04:50:24.282Z,96093.00
2023-01-11T04:52:53.808Z,96093.25
2023-01-11T04:55:21.842Z,96100.88
2023-01-11T04:57:49.715Z,96108.72
2023-01-11T05:00:18.451Z,96102.09
2023-01-11T05:02:46.303Z,96100.94
2023-01-11T05:05:14.071Z,96088.38
2023-01-11T05:07:41.884Z,96087.97
2023-01-11T05:10:12.355Z,96077.28
2023-01-11T05:12:40.231Z,96078.84
2023-01-11T05:15:09.660Z,96062.91
2023-01-11T05:17:37.508Z,96066.91
2023-01-11T05:20:06.070Z,96067.56
2023-01-11T05:22:33.953Z,96061.50
2023-01-11T05:25:01.780Z,96057.50
2023-01-11T05:27:31.012Z,96057.97
2023-01-11T05:29:58.890Z,96065.03
2023-01-11T05:32:26.780Z,96059.34
2023-01-11T05:34:54.656Z,96052.47
2023-01-11T05:37:22.499Z,96055.94
2023-01-11T05:39:50.388Z,96050.09
2023-01-11T05:42:18.221Z,96059.56
2023-01-11T05:45:04.548Z,96054.00
2023-01-11T05:47:32.420Z,96044.34
2023-01-11T05:50:00.269Z,96050.41
2023-01-11T05:52:28.077Z,96038.00
2023-01-11T05:54:55.916Z,96031.91
2023-01-11T05:57:23.833Z,96035.78
2023-01-11T05:59:53.039Z,96034.91
2023-01-11T06:02:21.061Z,96041.28
2023-01-11T06:04:49.061Z,96040.97
2023-01-11T06:07:16.923Z,96034.91
2023-01-11T06:09:44.777Z,96015.56
2023-01-11T06:12:12.642Z,96018.03
2023-01-11T06:14:40.453Z,96012.56
2023-01-11T06:17:09.846Z,96015.56
2023-01-11T06:19:37.704Z,96007.88
2023-01-11T06:22:05.531Z,96010.09
2023-01-11T06:24:33.421Z,96014.66
2023-01-11T06:27:01.262Z,96023.28
2023-01-11T06:29:29.096Z,96027.34
2023-01-11T06:31:58.198Z,96034.34
2023-01-11T06:34:27.474Z,96035.13
2023-01-11T06:36:55.308Z,96046.19
2023-01-11T06:39:23.157Z,96033.19
2023-01-11T06:41:51.022Z,96042.19
2023-01-11T06:44:19.015Z,96043.88
2023-01-11T06:46:46.827Z,96032.97
2023-01-11T06:49:14.818Z,96043.50
2023-01-11T06:51:44.043Z,96046.03
2023-01-11T06:54:11.909Z,96032.66
2023-01-11T06:56:39.771Z,96040.78
2023-01-11T06:59:07.647Z,96030.88
2023-01-11T07:01:35.714Z,96044.59
2023-01-11T07:04:03.593Z,96043.56
2023-01-11T07:06:32.181Z,96046.38
2023-01-11T07:09:01.435Z,96044.44
2023-01-11T07:11:31.597Z,96051.81
2023-01-11T07:13:59.437Z,96045.31
2023-01-11T07:16:27.254Z,96040.91
2023-01-11T07:18:55.119Z,96041.69
2023-01-11T07:21:23.001Z,96046.38
2023-01-11T07:23:50.852Z,96056.72
2023-01-11T07:26:21.564Z,96050.50
2023-01-11T07:28:49.462Z,96049.34
2023-01-11T07:31:17.353Z,96059.19
2023-01-11T07:33:45.246Z,96052.53
2023-01-11T07:36:13.190Z,96044.31
2023-01-11T07:38:41.029Z,96047.75
2023-01-11T07:41:22.869Z,96038.31
2023-01-11T07:43:52.076Z,96037.50
2023-01-11T07:46:20.067Z,96041.13
2023-01-11T07:48:48.260Z,96031.34
2023-01-11T07:51:17.948Z,96025.38
2023-01-11T07:53:45.783Z,96034.69
2023-01-11T07:56:13.662Z,96032.28
2023-01-11T07:58:41.487Z,96026.38
2023-01-11T08:01:10.693Z,96034.25
2023-01-11T08:03:38.683Z,96027.78
2023-01-11T08:06:07.159Z,96034.84
2023-01-11T08:08:35.056Z,96021.28
2023-01-11T08:11:20.198Z,96020.84
2023-01-11T08:14:05.769Z,96017.25
2023-01-11T08:16:34.960Z,96028.03
2023-01-11T08:19:02.975Z,96022.97
2023-01-11T08:21:31.431Z,96021.88
2023-01-11T08:24:00.793Z,96011.81
2023-01-11T08:26:28.925Z,96012.56
2023-01-11T08:28:57.280Z,96018.78
2023-01-11T08:31:26.240Z,96010.25
2023-01-11T08:33:55.507Z,96012.25
2023-01-11T08:36:24.792Z,96025.94
2023-01-11T08:38:55.384Z,96027.94
2023-01-11T08:41:23.223Z,96026.53
2023-01-11T08:43:51.209Z,96036.41
2023-01-11T08:46:20.425Z,96033.22
2023-01-11T08:48:48.568Z,96033.78
2023-01-11T08:51:18.478Z,96034.16
2023-01-11T08:53:46.439Z,96035.84
2023-01-11T08:56:14.801Z,96038.22
2023-01-11T08:58:42.651Z,96031.59
2023-01-11T09:01:12.116Z,96030.47
2023-01-11T09:03:39.925Z,96040.78
2023-01-11T09:06:08.533Z,96027.47
2023-01-11T09:08:37.725Z,96029.09
2023-01-11T09:11:25.910Z,96031.41
2023-01-11T09:13:53.708Z,96033.84
2023-01-11T09:16:21.664Z,96038.28
2023-01-11T09:18:49.652Z,96040.69
2023-01-11T09:21:18.559Z,96022.66
2023-01-11T09:23:47.881Z,96024.78
2023-01-11T09:26:16.165Z,96020.13
2023-01-11T09:28:44.009Z,96023.03
2023-01-11T09:31:11.933Z,96017.50
2023-01-11T09:33:39.885Z,96032.06
2023-01-11T09:36:08.561Z,96022.25
2023-01-11T09:38:39.177Z,96021.44
2023-01-11T09:41:28.017Z,96019.91
2023-01-11T09:44:06.430Z,96016.41
2023-01-11T09:46:36.973Z,96013.34
2023-01-11T09:49:07.652Z,96011.09
2023-01-11T09:51:39.603Z,96018.19
2023-01-11T09:54:10.692Z,96008.84
2023-01-11T09:56:53.879Z,96004.50
2023-01-11T09:59:33.804Z,96011.25
2023-01-11T10:02:16.347Z,96002.53
2023-01-11T10:05:10.059Z,95988.88
2023-01-11T10:18:25.903Z,95968.19
2023-01-11T10:18:34.080Z,95983.09
2023-01-11T10:20:05.081Z,95965.97
2023-01-11T10:22:41.899Z,95965.94
2023-01-11T10:25:21.849Z,95948.97
2023-01-11T10:27:58.896Z,95951.81
2023-01-11T10:30:41.943Z,95947.91
2023-01-11T10:33:46.294Z,95944.09
2023-01-11T10:36:39.617Z,95945.28
2023-01-11T10:39:31.980Z,95939.41
2023-01-11T10:42:10.768Z,95942.16
2023-01-11T10:44:48.687Z,95950.44
2023-01-11T10:47:24.876Z,95941.34
2023-01-11T10:50:03.515Z,95942.56
2023-01-11T10:52:41.478Z,95936.66
2023-01-11T10:55:13.965Z,95938.59
2023-01-11T10:58:00.379Z,95929.16
2023-01-11T11:00:37.301Z,95939.03
2023-01-11T11:03:32.797Z,95934.25
2023-01-11T11:06:09.612Z,95934.63
2023-01-11T11:08:46.745Z,95935.38
2023-01-11T11:11:21.943Z,95931.78
2023-01-11T11:14:03.214Z,95926.72
2023-01-11T11:16:52.664Z,95929.47
2023-01-11T11:19:26.672Z,95922.75
2023-01-11T11:21:54.600Z,95918.06
2023-01-11T11:24:33.176Z,95922.03
2023-01-11T11:27:09.332Z,95907.94
2023-01-11T11:29:43.522Z,95903.28
2023-01-11T11:32:22.722Z,95902.91
2023-01-11T11:34:53.274Z,95897.03
2023-01-11T11:37:24.077Z,95890.81
2023-01-11T11:39:54.695Z,95885.31
2023-01-11T11:42:23.686Z,95885.69
2023-01-11T11:45:16.903Z,95888.41
2023-01-11T11:48:01.984Z,95886.44
2023-01-11T11:50:44.178Z,95873.03
2023-01-11T11:53:26.380Z,95869.88
2023-01-11T11:55:55.622Z,95868.31
2023-01-11T11:58:27.366Z,95867.59
2023-01-11T12:00:55.871Z,95868.00
2023-01-11T12:03:30.063Z,95853.44
2023-01-11T12:06:02.923Z,95858.91
2023-01-11T12:08:34.126Z,95850.25
2023-01-11T12:11:06.796Z,95849.13
2023-01-11T12:13:37.394Z,95841.28
2023-01-11T12:16:08.295Z,95850.72
2023-01-11T12:18:43.020Z,95833.47
2023-01-11T12:21:24.117Z,95835.41
2023-01-11T12:24:10.853Z,95838.97
2023-01-11T12:26:49.606Z,95835.78
2023-01-11T12:29:46.513Z,95828.31
2023-01-11T12:32:32.697Z,95837.00
2023-01-11T12:35:20.757Z,95826.34
2023-01-11T12:38:17.179Z,95822.03
2023-01-11T12:40:59.969Z,95828.78
2023-01-11T12:43:43.135Z,95831.88
2023-01-11T12:46:25.899Z,95831.53
2023-01-11T12:49:13.981Z,95824.03
2023-01-11T12:52:03.668Z,95828.75
2023-01-11T12:55:01.237Z,95828.69
2023-01-11T12:57:41.696Z,95825.56
2023-01-11T13:00:28.215Z,95832.59
2023-01-11T13:03:20.241Z,95831.06
2023-01-11T13:06:02.859Z,95827.53
2023-01-11T13:08:46.180Z,95822.78
2023-01-11T13:11:36.540Z,95824.03
2023-01-11T13:14:28.222Z,95827.50
2023-01-11T13:17:14.696Z,95828.66
2023-01-11T13:19:53.612Z,95833.75
2023-01-11T13:22:29.990Z,95834.53
2023-01-11T13:25:02.551Z,95830.19
2023-01-11T13:27:32.808Z,95834.09
2023-01-11T13:30:03.089Z,95831.28
2023-01-11T13:32:37.468Z,95832.44
2023-01-11T13:35:16.371Z,95827.72
2023-01-11T13:37:50.257Z,95830.84
2023-01-11T13:40:24.656Z,95832.00
2023-01-11T13:42:58.968Z,95826.88
2023-01-11T13:45:31.506Z,95840.28
2023-01-11T13:48:09.353Z,95841.06
2023-01-11T13:50:45.435Z,95831.22
2023-01-11T13:53:26.485Z,95833.16
2023-01-11T13:56:02.998Z,95832.38
2023-01-11T13:58:43.222Z,95835.16
2023-01-11T14:01:15.680Z,95847.00
2023-01-11T14:03:51.044Z,95832.44
2023-01-11T14:06:45.607Z,95845.34
2023-01-11T14:09:37.633Z,95832.78
2023-01-11T14:12:15.386Z,95840.66
2023-01-11T14:15:02.926Z,95848.88
2023-01-11T14:17:55.325Z,95840.25
2023-01-11T14:20:35.366Z,95854.00
2023-01-11T14:23:12.280Z,95856.06
2023-01-11T14:26:03.654Z,95844.97
2023-01-11T14:28:47.685Z,95854.41
2023-01-11T14:31:54.891Z,95860.72
2023-01-11T14:34:51.007Z,95863.91
2023-01-11T14:38:13.796Z,95871.69
2023-01-11T14:41:10.794Z,95869.31
2023-01-11T14:44:06.841Z,95877.91
2023-01-11T14:47:03.067Z,95877.16
2023-01-11T14:49:51.283Z,95879.50
2023-01-11T14:52:39.090Z,95881.84
2023-01-11T14:55:17.627Z,95884.19
2023-01-11T14:58:02.654Z,95886.56
2023-01-11T15:01:06.530Z,95887.34
2023-01-11T15:03:55.935Z,95900.69
2023-01-11T15:06:24.643Z,95906.91
2023-01-11T15:08:55.339Z,95906.97
2023-01-11T15:11:41.844Z,95915.56
2023-01-11T15:14:32.865Z,95913.19
2023-01-11T15:17:20.619Z,95913.19
2023-01-11T15:19:53.306Z,95904.16
2023-01-11T15:22:31.094Z,95913.94
2023-01-11T15:25:02.422Z,95927.28
2023-01-11T15:27:35.271Z,95935.56
2023-01-11T15:30:05.791Z,95952.06
2023-01-11T15:32:35.693Z,95965.09
2023-01-11T15:35:33.692Z,95959.50
2023-01-11T15:38:13.933Z,95966.66
2023-01-11T15:40:46.934Z,95960.78
2023-01-11T15:43:50.552Z,95961.91
2023-01-11T15:46:56.408Z,95963.47
2023-01-11T15:50:03.222Z,95971.00
2023-01-11T15:53:17.657Z,95976.94
2023-01-11T15:56:10.055Z,95975.31
2023-01-11T15:59:10.991Z,95968.22
2023-01-11T16:01:59.604Z,95969.72
2023-01-11T16:04:34.884Z,95980.34
2023-01-11T16:07:14.024Z,95985.50
2023-01-11T16:10:09.877Z,95995.66
2023-01-11T16:13:03.252Z,96001.88
2023-01-11T16:15:53.545Z,96009.69
2023-01-11T16:18:26.636Z,96009.34
2023-01-11T16:21:02.631Z,96008.56
2023-01-11T16:23:32.792Z,96007.34
2023-01-11T16:26:04.985Z,96009.69
2023-01-11T16:28:32.878Z,96016.72
2023-01-11T16:31:02.970Z,96013.16
2023-01-11T16:33:33.429Z,96008.13
2023-01-11T16:36:12.572Z,96012.34
2023-01-11T16:39:03.838Z,96019.78
2023-01-11T16:41:42.178Z,96019.78
2023-01-11T16:44:23.319Z,96026.88
2023-01-11T16:47:11.473Z,96024.84
2023-01-11T16:49:39.639Z,96037.78
2023-01-11T16:52:45.535Z,96033.75
2023-01-11T16:55:32.465Z,96035.66
2023-01-11T16:58:05.778Z,96045.69
2023-01-11T17:00:38.047Z,96059.78
2023-01-11T17:03:19.571Z,96064.47
2023-01-11T17:05:55.550Z,96068.47
2023-01-11T17:08:29.606Z,96061.31
2023-01-11T17:11:03.942Z,96069.19
2023-01-11T17:14:03.266Z,96079.47
2023-01-11T17:16:37.724Z,96074.75
2023-01-11T17:19:14.077Z,96069.34
2023-01-11T17:21:48.786Z,96078.88
2023-01-11T17:24:19.080Z,96090.44
2023-01-11T17:26:51.297Z,96091.50
2023-01-11T17:29:29.189Z,96099.75
2023-01-11T17:32:00.665Z,96106.50
2023-01-11T17:34:34.098Z,96100.63
2023-01-11T17:37:04.502Z,96109.31
2023-01-11T17:39:35.922Z,96106.19
2023-01-11T17:42:24.509Z,96108.94
2023-01-11T17:45:14.925Z,96121.25
2023-01-11T17:47:45.506Z,96115.34
2023-01-11T17:50:39.118Z,96121.75
2023-01-11T17:53:15.210Z,96121.75
2023-01-11T17:55:52.387Z,96120.25
2023-01-11T17:58:26.255Z,96135.25
2023-01-11T18:01:18.127Z,96136.31
2023-01-11T18:03:48.641Z,96143.13
2023-01-11T18:06:27.615Z,96145.81
2023-01-11T18:08:58.509Z,96136.00
2023-01-11T18:11:29.640Z,96148.59
2023-01-11T18:14:01.497Z,96147.84
2023-01-11T18:16:31.441Z,96150.19
2023-01-11T18:18:59.384Z,96149.34
2023-01-11T18:21:41.076Z,96161.22
2023-01-11T18:24:28.175Z,96161.94
2023-01-11T18:27:08.653Z,96168.72
2023-01-11T18:29:49.059Z,96170.19
2023-01-11T18:32:18.908Z,96169.88
2023-01-11T18:34:50.509Z,96177.72
2023-01-11T18:37:19.469Z,96178.44
2023-01-11T18:39:47.319Z,96183.56
2023-01-11T18:42:21.056Z,96183.09
2023-01-11T18:44:49.686Z,96189.38
2023-01-11T18:47:22.063Z,96191.66
2023-01-11T18:49:51.511Z,96186.94
2023-01-11T18:52:20.404Z,96189.25
2023-01-11T18:54:48.893Z,96193.66
2023-01-11T18:57:16.794Z,96199.03
2023-01-11T18:59:44.682Z,96202.94
2023-01-11T19:04:56.070Z,96193.88
2023-01-11T19:07:24.254Z,96195.00
2023-01-11T19:09:54.708Z,96198.50
2023-01-11T19:12:23.487Z,96195.34
2023-01-11T19:14:51.573Z,96202.47
2023-01-11T19:17:20.859Z,96210.03
2023-01-11T19:19:48.837Z,96198.59
2023-01-11T19:22:16.947Z,96209.50
2023-01-11T19:24:44.851Z,96211.06
2023-01-11T19:27:13.465Z,96197.75
2023-01-11T19:29:41.642Z,96205.16
2023-01-11T19:32:10.490Z,96205.44
2023-01-11T19:34:40.679Z,96213.25
2023-01-11T19:37:09.043Z,96215.19
2023-01-11T19:39:37.157Z,96227.69
2023-01-11T19:42:05.370Z,96220.91
2023-01-11T19:44:35.568Z,96212.97
2023-01-11T19:47:11.524Z,96228.72
2023-01-11T19:49:42.184Z,96236.13
2023-01-11T19:52:13.897Z,96236.13
2023-01-11T19:54:42.903Z,96250.56
2023-01-11T19:57:12.244Z,96250.94
2023-01-11T19:59:40.190Z,96252.09
2023-01-11T20:02:08.906Z,96255.94
2023-01-11T20:04:37.222Z,96259.91
2023-01-11T20:07:06.703Z,96268.16
2023-01-11T20:09:37.493Z,96267.28
2023-01-11T20:12:06.009Z,96273.22
2023-01-11T20:14:34.445Z,96263.31
2023-01-11T20:17:02.506Z,96258.31
2023-01-11T20:19:30.406Z,96260.22
2023-01-11T20:21:58.341Z,96264.63
2023-01-11T20:24:29.939Z,96271.53
2023-01-11T20:26:59.751Z,96276.06
2023-01-11T20:29:27.801Z,96283.16
2023-01-11T20:31:55.855Z,96289.13
2023-01-11T20:34:25.618Z,96277.94
2023-01-11T20:36:53.866Z,96286.47
2023-01-11T20:39:21.741Z,96284.31
2023-01-11T20:41:51.236Z,96296.81
2023-01-11T20:44:23.765Z,96292.06
2023-01-11T20:46:52.952Z,96302.78
2023-01-11T20:49:23.892Z,96297.28
2023-01-11T20:51:51.936Z,96294.81
2023-01-11T20:54:20.261Z,96299.56
2023-01-11T20:56:48.308Z,96295.47
2023-01-11T20:59:20.107Z,96299.81
2023-01-11T21:01:48.621Z,96304.78
2023-01-11T21:04:17.982Z,96308.13
2023-01-11T21:06:48.704Z,96308.97
2023-01-11T21:09:18.489Z,96312.88
2023-01-11T21:11:52.558Z,96321.50
2023-01-11T21:14:22.634Z,96326.34
2023-01-11T21:16:50.915Z,96333.81
2023-01-11T21:19:18.828Z,96339.69
2023-01-11T21:21:49.713Z,96346.06
2023-01-11T21:24:18.087Z,96338.31
2023-01-11T21:26:47.976Z,96342.16
2023-01-11T21:29:15.942Z,96342.75
2023-01-11T21:31:45.290Z,96339.50
2023-01-11T21:34:14.332Z,96332.41
2023-01-11T21:36:43.666Z,96334.81
2023-01-11T21:39:14.052Z,96341.69
2023-01-11T21:41:58.628Z,96345.16
2023-01-11T21:44:33.345Z,96349.06
2023-01-11T21:47:04.237Z,96356.94
2023-01-11T21:49:32.424Z,96357.66
2023-01-11T21:52:00.827Z,96349.63
2023-01-11T21:54:28.719Z,96356.78
2023-01-11T21:56:56.634Z,96357.59
2023-01-11T21:59:24.796Z,96360.28
2023-01-11T22:01:52.698Z,96345.44
2023-01-11T22:04:22.476Z,96346.59
2023-01-11T22:06:55.879Z,96350.66
2023-01-11T22:09:25.561Z,96346.25
2023-01-11T22:11:53.604Z,96353.25
2023-01-11T22:14:21.540Z,96351.69
2023-01-11T22:16:49.374Z,96350.09
2023-01-11T22:19:17.625Z,96357.16
2023-01-11T22:21:46.907Z,96363.38
2023-01-11T22:24:15.465Z,96369.31
2023-01-11T22:26:43.353Z,96372.94
2023-01-11T22:29:15.277Z,96375.72
2023-01-11T22:31:46.887Z,96381.00
2023-01-11T22:34:15.642Z,96377.84
2023-01-11T22:36:44.813Z,96376.09
2023-01-11T22:39:15.697Z,96377.59
2023-01-11T22:41:46.035Z,96380.28
2023-01-11T22:44:14.872Z,96379.19
2023-01-11T22:46:43.449Z,96386.19
2023-01-11T22:49:12.772Z,96380.28
2023-01-11T22:51:42.241Z,96383.44
2023-01-11T22:54:10.617Z,96395.63
2023-01-11T22:56:40.497Z,96387.19
2023-01-11T22:59:09.185Z,96382.56
2023-01-11T23:01:39.057Z,96387.13
2023-01-11T23:04:09.722Z,96377.63
2023-01-11T23:06:39.672Z,96371.44
2023-01-11T23:09:12.370Z,96370.72
2023-01-11T23:12:00.207Z,96374.00
2023-01-11T23:14:30.747Z,96368.91
2023-01-11T23:17:00.275Z,96361.09
2023-01-11T23:19:28.219Z,96375.53
2023-01-11T23:21:56.081Z,96370.47
2023-01-11T23:24:23.971Z,96368.03
2023-01-11T23:26:53.385Z,96376.53
2023-01-11T23:29:21.278Z,96374.50
2023-01-11T23:31:49.287Z,96381.25
2023-01-11T23:34:17.356Z,96386.72
2023-01-11T23:36:45.200Z,96379.38
2023-01-11T23:39:16.279Z,96393.75
2023-01-11T23:42:01.629Z,96396.84
2023-01-11T23:44:31.391Z,96407.13
2023-01-11T23:47:16.807Z,96397.22
2023-01-11T23:49:44.748Z,96402.97
2023-01-11T23:52:13.174Z,96377.72
2023-01-11T23:54:41.269Z,96375.25
2023-01-11T23:57:12.348Z,96387.38
2023-01-11T23:59:42.892Z,96381.81
